首页
METAR-TAF:

METAR-TAF

机场 :

郑州新郑国际机场

郑州, 中华人民共和国

纬度: 34-43N, 经度: 113-39E, 海拔: 111米

当前天气观测

该预报发布于1小时和7分钟前的07:00 UTC
风速8节,风向西北,在西之间变化
温度 27°C
湿度 28%
气压 1014 hPa
能見度: 6000

METAR: ZHCC 220700Z 31004MPS 270V350 6000 NSC 27/07 Q1014 NOSIG

时间: 16:07 (08:07 UTC)

预报

该预报发布于4小时和58分钟前的03:09 UTC
预报有效从22日的 06点(UTC)到 23日的 06点(UTC)
风速10节,风向西转西北
能見度: 5000

TAF: ZHCC 220309Z 2206/2306 30005MPS 5000 HZ NSC TX25/2207Z TN15/2222Z

超过4000个机场的气象观测和天气预报(METAR&TAF报告)。

可查询的气象台以黄色和红色小点在地图上表示。

将鼠标移到小点上方,可查看气象台名称。

然后点击查看天气观测和预报。

如需切换地图:点击带黑十字的绿色按钮放大地图;点击带横线的绿色按钮缩小地图;或者点击绿色箭头查看邻近地区的地图。


METAR-TAF: